createdAt,value
2018-11-11T00:00:32.263Z,12.10
2018-11-11T00:03:00.488Z,12.10
2018-11-11T00:05:28.706Z,12.00
2018-11-11T00:07:56.936Z,12.00
2018-11-11T00:10:25.156Z,12.00
2018-11-11T00:12:53.374Z,12.10
2018-11-11T00:15:21.607Z,12.10
2018-11-11T00:17:49.818Z,12.10
2018-11-11T00:20:18.149Z,12.00
2018-11-11T00:22:46.427Z,12.00
2018-11-11T00:25:14.918Z,12.00
2018-11-11T00:27:43.141Z,12.10
2018-11-11T00:30:18.451Z,12.10
2018-11-11T00:32:47.515Z,12.10
2018-11-11T00:35:15.783Z,12.10
2018-11-11T00:37:44.059Z,12.10
2018-11-11T00:40:13.650Z,12.10
2018-11-11T00:42:42.130Z,12.10
2018-11-11T00:45:11.031Z,12.10
2018-11-11T00:47:39.306Z,12.10
2018-11-11T00:50:08.719Z,12.10
2018-11-11T00:52:37.043Z,12.00
2018-11-11T00:55:07.314Z,12.00
2018-11-11T00:57:35.540Z,12.00
2018-11-11T01:00:04.790Z,12.10
2018-11-11T01:02:34.411Z,12.10
2018-11-11T01:05:03.016Z,12.00
2018-11-11T01:07:31.679Z,11.90
2018-11-11T01:09:59.959Z,11.90
2018-11-11T01:12:28.182Z,11.90
2018-11-11T01:14:56.620Z,11.90
2018-11-11T01:17:25.114Z,11.90
2018-11-11T01:19:53.516Z,11.90
2018-11-11T01:22:21.745Z,11.90
2018-11-11T01:24:49.935Z,11.90
2018-11-11T01:27:18.207Z,12.00
2018-11-11T01:29:46.396Z,12.00
2018-11-11T01:32:14.621Z,12.00
2018-11-11T01:34:42.853Z,12.00
2018-11-11T01:37:11.066Z,12.00
2018-11-11T01:39:39.366Z,11.90
2018-11-11T01:42:07.604Z,11.90
2018-11-11T01:44:35.843Z,11.80
2018-11-11T01:47:04.147Z,11.90
2018-11-11T01:49:32.428Z,11.90
2018-11-11T01:52:00.653Z,11.90
2018-11-11T01:54:28.879Z,11.80
2018-11-11T01:56:57.102Z,11.80
2018-11-11T01:59:25.326Z,11.80
2018-11-11T02:01:53.538Z,11.80
2018-11-11T02:04:21.746Z,11.70
2018-11-11T02:06:49.978Z,11.80
2018-11-11T02:09:18.195Z,11.90
2018-11-11T02:11:46.426Z,11.90
2018-11-11T02:14:14.648Z,11.90
2018-11-11T02:16:42.875Z,11.80
2018-11-11T02:19:11.113Z,11.90
2018-11-11T02:21:39.380Z,11.80
2018-11-11T02:24:07.599Z,11.80
2018-11-11T02:26:35.810Z,11.70
2018-11-11T02:29:04.095Z,11.80
2018-11-11T02:31:32.305Z,11.70
2018-11-11T02:34:00.535Z,11.70
2018-11-11T02:36:28.739Z,11.70
2018-11-11T02:38:56.945Z,11.60
2018-11-11T02:41:25.141Z,11.60
2018-11-11T02:43:53.353Z,11.60
2018-11-11T02:46:21.560Z,11.60
2018-11-11T02:48:49.766Z,11.60
2018-11-11T02:51:17.979Z,11.70
2018-11-11T02:53:46.206Z,11.60
2018-11-11T02:56:14.407Z,11.60
2018-11-11T02:58:42.621Z,11.70
2018-11-11T03:01:10.818Z,11.70
2018-11-11T03:03:39.430Z,11.90
2018-11-11T03:06:07.639Z,11.80
2018-11-11T03:08:35.863Z,11.70
2018-11-11T03:11:04.082Z,11.60
2018-11-11T03:13:32.286Z,11.50
2018-11-11T03:16:00.484Z,11.50
2018-11-11T03:18:28.705Z,11.50
2018-11-11T03:20:56.928Z,11.50
2018-11-11T03:23:25.142Z,11.50
2018-11-11T03:25:53.338Z,11.50
2018-11-11T03:28:21.561Z,11.40
2018-11-11T03:30:49.766Z,11.50
2018-11-11T03:33:17.984Z,11.50
2018-11-11T03:35:46.186Z,11.50
2018-11-11T03:38:14.398Z,11.50
2018-11-11T03:40:42.590Z,11.40
2018-11-11T03:43:10.803Z,11.50
2018-11-11T03:45:39.024Z,11.40
2018-11-11T03:48:07.237Z,11.40
2018-11-11T03:50:35.437Z,11.40
2018-11-11T03:53:03.649Z,11.40
2018-11-11T03:55:31.870Z,11.40
2018-11-11T03:58:00.094Z,11.40
2018-11-11T04:00:28.297Z,11.30
2018-11-11T04:02:56.509Z,11.30
2018-11-11T04:05:24.700Z,11.20
2018-11-11T04:07:53.012Z,11.20
2018-11-11T04:10:21.259Z,11.20
2018-11-11T04:12:49.738Z,11.20
2018-11-11T04:15:19.153Z,11.30
2018-11-11T04:17:47.871Z,11.40
2018-11-11T04:20:17.342Z,11.40
2018-11-11T04:22:45.571Z,11.40
2018-11-11T04:25:14.403Z,11.50
2018-11-11T04:27:42.662Z,11.40
2018-11-11T04:30:11.886Z,11.40
2018-11-11T04:32:40.466Z,11.50
2018-11-11T04:35:08.738Z,11.40
2018-11-11T04:37:36.968Z,11.40
2018-11-11T04:40:06.805Z,11.40
2018-11-11T04:42:35.018Z,11.50
2018-11-11T04:45:03.205Z,11.50
2018-11-11T04:47:31.434Z,11.40
2018-11-11T04:49:59.630Z,11.40
2018-11-11T04:52:27.847Z,11.40
2018-11-11T04:54:56.047Z,11.40
2018-11-11T04:57:24.250Z,11.50
2018-11-11T04:59:52.441Z,11.40
2018-11-11T05:02:20.644Z,11.40
2018-11-11T05:04:48.955Z,11.40
2018-11-11T05:07:17.091Z,11.40
2018-11-11T05:09:45.306Z,11.40
2018-11-11T05:12:13.515Z,11.50
2018-11-11T05:14:41.710Z,11.40
2018-11-11T05:17:09.917Z,11.50
2018-11-11T05:19:38.119Z,11.50
2018-11-11T05:22:06.651Z,11.50
2018-11-11T05:24:34.854Z,11.50
2018-11-11T05:27:03.046Z,11.40
2018-11-11T05:29:31.264Z,11.40
2018-11-11T05:31:59.479Z,11.40
2018-11-11T05:34:27.708Z,11.50
2018-11-11T05:36:55.922Z,11.50
2018-11-11T05:39:24.155Z,11.50
2018-11-11T05:41:52.371Z,11.50
2018-11-11T05:44:20.594Z,11.50
2018-11-11T05:46:48.807Z,11.50
2018-11-11T05:49:17.042Z,11.50
2018-11-11T05:51:45.261Z,11.50
2018-11-11T05:54:13.509Z,11.70
2018-11-11T05:56:41.727Z,11.60
2018-11-11T05:59:09.959Z,11.70
2018-11-11T06:01:38.186Z,11.60
2018-11-11T06:04:06.407Z,11.60
2018-11-11T06:06:34.622Z,11.50
2018-11-11T06:09:02.890Z,11.40
2018-11-11T06:11:31.097Z,11.40
2018-11-11T06:13:59.323Z,11.40
2018-11-11T06:16:27.524Z,11.40
2018-11-11T06:18:55.732Z,11.40
2018-11-11T06:21:23.940Z,11.30
2018-11-11T06:23:52.164Z,11.30
2018-11-11T06:26:20.375Z,11.50
2018-11-11T06:28:48.672Z,11.50
2018-11-11T06:31:16.883Z,11.60
2018-11-11T06:33:45.109Z,11.60
2018-11-11T06:36:13.313Z,11.60
2018-11-11T06:38:41.567Z,11.50
2018-11-11T06:41:09.810Z,11.50
2018-11-11T06:43:37.984Z,11.40
2018-11-11T06:46:06.221Z,11.50
2018-11-11T06:48:34.437Z,11.40
2018-11-11T06:51:02.663Z,11.50
2018-11-11T06:53:30.874Z,11.50
2018-11-11T06:55:59.085Z,11.60
2018-11-11T06:58:27.296Z,11.60
2018-11-11T07:00:55.494Z,11.60
2018-11-11T07:03:35.125Z,11.60
2018-11-11T07:06:03.326Z,11.60
2018-11-11T07:08:31.555Z,11.60
2018-11-11T07:10:59.762Z,11.70
2018-11-11T07:13:27.983Z,11.70
2018-11-11T07:15:56.181Z,11.70
2018-11-11T07:18:24.395Z,11.70
2018-11-11T07:20:52.602Z,11.80
2018-11-11T07:23:20.806Z,11.80
2018-11-11T07:25:49.026Z,11.80
2018-11-11T07:28:17.254Z,11.90
2018-11-11T07:30:45.478Z,11.90
2018-11-11T07:33:13.689Z,12.00
2018-11-11T07:35:41.940Z,11.90
2018-11-11T07:38:10.141Z,12.00
2018-11-11T07:40:38.354Z,12.10
2018-11-11T07:43:06.574Z,12.00
2018-11-11T07:45:34.783Z,12.00
2018-11-11T07:48:03.126Z,12.00
2018-11-11T07:50:31.205Z,12.10
2018-11-11T07:52:59.425Z,12.10
2018-11-11T07:55:27.646Z,12.30
2018-11-11T07:57:55.862Z,12.40
2018-11-11T08:00:24.073Z,12.50
2018-11-11T08:02:52.286Z,12.50
2018-11-11T08:05:20.496Z,12.60
2018-11-11T08:07:48.718Z,12.60
2018-11-11T08:10:28.315Z,12.60
2018-11-11T08:12:56.506Z,12.60
2018-11-11T08:15:24.815Z,12.70
2018-11-11T08:17:53.005Z,12.80
2018-11-11T08:20:21.222Z,12.70
2018-11-11T08:22:49.429Z,12.70
2018-11-11T08:25:17.647Z,12.60
2018-11-11T08:27:46.022Z,12.70
2018-11-11T08:30:14.226Z,12.70
2018-11-11T08:32:42.433Z,12.70
2018-11-11T08:35:10.717Z,12.80
2018-11-11T08:37:39.722Z,12.90
2018-11-11T08:40:08.603Z,13.00
2018-11-11T08:42:36.793Z,13.00
2018-11-11T08:45:06.801Z,13.00
2018-11-11T08:47:35.028Z,13.00
2018-11-11T08:50:03.265Z,13.00
2018-11-11T08:52:31.474Z,13.00
2018-11-11T08:54:59.709Z,13.00
2018-11-11T08:57:27.986Z,13.00
2018-11-11T08:59:56.198Z,13.00
2018-11-11T09:02:24.419Z,13.00
2018-11-11T09:04:52.694Z,13.10
2018-11-11T09:07:20.931Z,13.10
2018-11-11T09:09:49.150Z,13.10
2018-11-11T09:12:17.356Z,13.10
2018-11-11T09:14:45.615Z,13.20
2018-11-11T09:17:13.811Z,13.20
2018-11-11T09:19:42.041Z,13.30
2018-11-11T09:22:10.257Z,13.40
2018-11-11T09:24:38.471Z,13.40
2018-11-11T09:27:06.678Z,13.50
2018-11-11T09:29:35.428Z,13.50
2018-11-11T09:32:03.601Z,13.50
2018-11-11T09:34:31.825Z,13.50
2018-11-11T09:37:00.030Z,13.60
2018-11-11T09:39:28.225Z,13.50
2018-11-11T09:41:56.444Z,13.50
2018-11-11T09:44:24.631Z,13.60
2018-11-11T09:46:52.873Z,13.60
2018-11-11T09:49:21.081Z,13.70
2018-11-11T09:51:49.294Z,13.70
2018-11-11T09:54:17.599Z,13.60
2018-11-11T09:56:49.727Z,13.60
2018-11-11T09:59:17.925Z,13.50
2018-11-11T10:01:46.177Z,13.50
2018-11-11T10:04:19.731Z,13.50
2018-11-11T10:06:53.504Z,13.60
2018-11-11T10:09:26.841Z,13.50
2018-11-11T10:12:04.610Z,13.50
2018-11-11T10:15:40.583Z,13.50
2018-11-11T10:20:18.763Z,13.50
2018-11-11T10:22:53.763Z,13.50
2018-11-11T10:25:30.432Z,13.60
2018-11-11T10:28:04.956Z,13.60
2018-11-11T10:30:40.255Z,13.60
2018-11-11T10:33:20.524Z,13.60
2018-11-11T10:36:00.687Z,13.60
2018-11-11T10:38:46.777Z,13.60
2018-11-11T10:41:19.510Z,13.60
2018-11-11T10:43:50.825Z,13.60
2018-11-11T10:47:25.226Z,13.70
2018-11-11T10:49:55.363Z,13.60
2018-11-11T10:52:23.554Z,13.60
2018-11-11T10:54:51.776Z,13.70
2018-11-11T10:57:19.977Z,13.70
2018-11-11T10:59:48.170Z,13.70
2018-11-11T11:02:16.390Z,13.80
2018-11-11T11:04:50.088Z,13.80
2018-11-11T11:07:18.309Z,13.80
2018-11-11T11:09:46.540Z,13.90
2018-11-11T11:12:14.741Z,13.90
2018-11-11T11:14:42.939Z,14.00
2018-11-11T11:17:11.246Z,14.00
2018-11-11T11:19:39.458Z,14.10
2018-11-11T11:22:08.290Z,14.10
2018-11-11T11:24:36.498Z,14.20
2018-11-11T11:27:05.595Z,14.20
2018-11-11T11:29:33.769Z,14.30
2018-11-11T11:32:02.057Z,14.30
2018-11-11T11:34:30.230Z,14.50
2018-11-11T11:36:58.457Z,14.60
2018-11-11T11:39:26.766Z,14.70
2018-11-11T11:41:54.983Z,14.80
2018-11-11T11:44:23.165Z,15.20
2018-11-11T11:46:51.406Z,15.60
2018-11-11T11:49:19.605Z,15.70
2018-11-11T11:51:47.836Z,15.70
2018-11-11T11:54:16.025Z,15.70
2018-11-11T11:56:44.218Z,15.70
2018-11-11T11:59:12.419Z,15.60
2018-11-11T12:01:40.599Z,15.60
2018-11-11T12:04:09.000Z,15.70
2018-11-11T12:06:37.189Z,15.60
2018-11-11T12:09:07.930Z,15.70
2018-11-11T12:11:36.122Z,15.70
2018-11-11T12:14:04.349Z,15.70
2018-11-11T12:16:32.615Z,15.80
2018-11-11T12:19:01.022Z,15.80
2018-11-11T12:21:29.242Z,15.80
2018-11-11T12:23:57.450Z,15.90
2018-11-11T12:26:25.647Z,16.00
2018-11-11T12:28:53.852Z,16.00
2018-11-11T12:31:22.033Z,16.10
2018-11-11T12:33:50.499Z,16.10
2018-11-11T12:36:18.703Z,16.00
2018-11-11T12:38:47.007Z,15.90
2018-11-11T12:41:15.287Z,15.90
2018-11-11T12:43:43.527Z,15.80
2018-11-11T12:46:11.754Z,15.80
2018-11-11T12:48:40.014Z,15.70
2018-11-11T12:51:08.250Z,15.70
2018-11-11T12:53:36.459Z,15.70
2018-11-11T12:56:05.127Z,15.80
2018-11-11T12:58:33.368Z,15.80
2018-11-11T13:01:01.554Z,15.90
2018-11-11T13:03:29.793Z,15.90
2018-11-11T13:05:58.527Z,15.90
2018-11-11T13:08:26.729Z,15.90
2018-11-11T13:10:54.962Z,15.90
2018-11-11T13:13:23.193Z,15.90
2018-11-11T13:15:51.399Z,15.90
2018-11-11T13:18:19.627Z,15.90
2018-11-11T13:20:47.863Z,15.90
2018-11-11T13:23:16.067Z,15.80
2018-11-11T13:25:44.270Z,15.80
2018-11-11T13:28:12.473Z,15.80
2018-11-11T13:30:40.733Z,15.90
2018-11-11T13:33:08.942Z,15.90
2018-11-11T13:35:37.134Z,15.90
2018-11-11T13:38:05.517Z,16.00
2018-11-11T13:40:33.650Z,16.00
2018-11-11T13:43:01.837Z,16.10
2018-11-11T13:45:30.042Z,16.10
2018-11-11T13:47:58.262Z,16.10
2018-11-11T13:50:26.440Z,16.20
2018-11-11T13:52:54.641Z,16.20
2018-11-11T13:55:22.937Z,16.30
2018-11-11T13:57:51.339Z,16.30
2018-11-11T14:00:22.506Z,16.30
2018-11-11T14:02:50.753Z,16.40
2018-11-11T14:05:18.973Z,16.50
2018-11-11T14:07:47.233Z,16.40
2018-11-11T14:10:15.846Z,16.50
2018-11-11T14:12:44.130Z,16.50
2018-11-11T14:15:15.331Z,16.50
2018-11-11T14:17:44.320Z,16.50
2018-11-11T14:20:13.735Z,16.40
2018-11-11T14:22:43.125Z,16.50
2018-11-11T14:25:14.512Z,16.50
2018-11-11T14:27:42.857Z,16.40
2018-11-11T14:30:13.701Z,16.30
2018-11-11T14:32:41.956Z,16.30
2018-11-11T14:35:10.970Z,16.30
2018-11-11T14:37:39.154Z,16.40
2018-11-11T14:40:16.444Z,16.50
2018-11-11T14:42:44.942Z,16.50
2018-11-11T14:45:14.214Z,16.40
2018-11-11T14:47:43.198Z,16.30
2018-11-11T14:50:12.695Z,16.10
2018-11-11T14:52:41.202Z,16.00
2018-11-11T14:55:11.968Z,15.90
2018-11-11T14:57:40.105Z,15.80
2018-11-11T15:00:13.274Z,15.70
2018-11-11T15:02:41.499Z,15.60
2018-11-11T15:05:12.099Z,15.50
2018-11-11T15:07:40.581Z,15.40
2018-11-11T15:10:10.093Z,15.20
2018-11-11T15:12:38.478Z,15.20
2018-11-11T15:15:10.010Z,15.00
2018-11-11T15:17:38.203Z,14.90
2018-11-11T15:20:07.733Z,14.80
2018-11-11T15:22:35.907Z,14.80
2018-11-11T15:25:04.496Z,14.70
2018-11-11T15:27:32.713Z,14.60
2018-11-11T15:30:00.913Z,14.50
2018-11-11T15:32:29.127Z,14.40
2018-11-11T15:34:57.422Z,14.30
2018-11-11T15:37:25.834Z,14.40
2018-11-11T15:39:54.045Z,14.30
2018-11-11T15:42:22.278Z,14.20
2018-11-11T15:44:50.438Z,14.20
2018-11-11T15:47:18.630Z,14.10
2018-11-11T15:49:46.846Z,14.10
2018-11-11T15:52:15.110Z,14.00
2018-11-11T15:54:43.242Z,14.00
2018-11-11T15:57:11.550Z,14.00
2018-11-11T15:59:39.744Z,13.90
2018-11-11T16:02:07.942Z,13.90
2018-11-11T16:04:36.158Z,13.80
2018-11-11T16:07:04.371Z,13.70
2018-11-11T16:09:32.591Z,13.70
2018-11-11T16:12:00.834Z,13.70
2018-11-11T16:14:29.061Z,13.70
2018-11-11T16:16:57.320Z,13.60
2018-11-11T16:19:25.535Z,13.70
2018-11-11T16:21:53.730Z,13.60
2018-11-11T16:24:21.934Z,13.60
2018-11-11T16:26:50.228Z,13.50
2018-11-11T16:29:18.502Z,13.50
2018-11-11T16:31:46.714Z,13.40
2018-11-11T16:34:15.133Z,13.40
2018-11-11T16:36:43.809Z,13.40
2018-11-11T16:39:12.742Z,13.30
2018-11-11T16:41:41.345Z,13.20
2018-11-11T16:44:09.567Z,13.10
2018-11-11T16:46:37.774Z,13.00
2018-11-11T16:49:06.321Z,13.00
2018-11-11T16:51:34.596Z,12.90
2018-11-11T16:54:02.797Z,12.90
2018-11-11T16:56:30.976Z,12.90
2018-11-11T16:58:59.158Z,12.90
2018-11-11T17:01:27.353Z,12.80
2018-11-11T17:03:55.525Z,12.80
2018-11-11T17:06:23.721Z,12.80
2018-11-11T17:08:51.913Z,12.70
2018-11-11T17:11:20.296Z,12.70
2018-11-11T17:13:48.490Z,12.70
2018-11-11T17:16:16.682Z,12.60
2018-11-11T17:18:44.853Z,12.60
2018-11-11T17:21:13.068Z,12.50
2018-11-11T17:23:41.213Z,12.40
2018-11-11T17:26:09.402Z,12.50
2018-11-11T17:29:17.442Z,12.40
2018-11-11T17:31:46.179Z,12.40
2018-11-11T17:34:14.612Z,12.50
2018-11-11T17:36:42.993Z,12.40
2018-11-11T17:39:12.173Z,12.40
2018-11-11T17:41:40.464Z,12.30
2018-11-11T17:44:08.586Z,12.20
2018-11-11T17:46:36.781Z,12.20
2018-11-11T17:49:05.118Z,12.10
2018-11-11T17:51:33.229Z,12.00
2018-11-11T17:54:01.410Z,11.90
2018-11-11T17:56:29.599Z,11.90
2018-11-11T17:58:57.769Z,11.90
2018-11-11T18:01:25.966Z,11.70
2018-11-11T18:03:54.168Z,11.50
2018-11-11T18:06:22.350Z,11.50
2018-11-11T18:08:50.587Z,11.50
2018-11-11T18:11:18.726Z,11.50
2018-11-11T18:13:46.910Z,11.40
2018-11-11T18:16:15.151Z,11.40
2018-11-11T18:18:43.325Z,11.50
2018-11-11T18:21:11.514Z,11.40
2018-11-11T18:23:39.697Z,11.30
2018-11-11T18:26:07.888Z,11.30
2018-11-11T18:28:36.090Z,11.30
2018-11-11T18:31:04.377Z,11.30
2018-11-11T18:33:32.622Z,11.20
2018-11-11T18:36:00.855Z,11.20
2018-11-11T18:38:29.026Z,11.30
2018-11-11T18:40:57.223Z,11.40
2018-11-11T18:43:25.404Z,11.40
2018-11-11T18:45:53.595Z,11.60
2018-11-11T18:48:21.761Z,11.60
2018-11-11T18:53:24.699Z,11.70
2018-11-11T18:55:52.890Z,11.50
2018-11-11T18:58:21.061Z,11.40
2018-11-11T19:00:49.282Z,11.40
2018-11-11T19:03:17.473Z,11.40
2018-11-11T19:05:45.703Z,11.40
2018-11-11T19:08:13.890Z,11.40
2018-11-11T19:10:42.120Z,11.40
2018-11-11T19:13:10.316Z,11.50
2018-11-11T19:15:38.466Z,11.40
2018-11-11T19:18:06.657Z,11.50
2018-11-11T19:20:34.848Z,11.50
2018-11-11T19:23:03.040Z,11.40
2018-11-11T19:25:31.797Z,11.40
2018-11-11T19:28:01.012Z,11.40
2018-11-11T19:30:29.985Z,11.40
2018-11-11T19:32:58.090Z,11.40
2018-11-11T19:35:26.278Z,11.30
2018-11-11T19:37:55.438Z,11.30
2018-11-11T19:40:25.861Z,11.30
2018-11-11T19:42:55.291Z,11.30
2018-11-11T19:45:24.779Z,11.30
2018-11-11T19:47:52.977Z,11.30
2018-11-11T19:50:22.377Z,11.30
2018-11-11T19:52:51.470Z,11.20
2018-11-11T19:55:20.266Z,11.20
2018-11-11T19:57:48.459Z,11.20
2018-11-11T20:00:20.166Z,11.20
2018-11-11T20:02:49.475Z,11.30
2018-11-11T20:05:18.246Z,11.30
2018-11-11T20:07:47.453Z,11.20
2018-11-11T20:10:16.750Z,11.10
2018-11-11T20:12:44.950Z,11.10
2018-11-11T20:15:15.433Z,11.10
2018-11-11T20:17:43.985Z,11.10
2018-11-11T20:20:16.813Z,11.10
2018-11-11T20:22:45.041Z,11.10
2018-11-11T20:25:14.190Z,11.20
2018-11-11T20:27:42.683Z,11.20
2018-11-11T20:30:15.213Z,11.20
2018-11-11T20:32:43.637Z,11.30
2018-11-11T20:35:13.364Z,11.40
2018-11-11T20:37:41.577Z,11.40
2018-11-11T20:40:11.889Z,11.40
2018-11-11T20:42:40.690Z,11.30
2018-11-11T20:45:09.922Z,11.20
2018-11-11T20:47:38.721Z,11.30
2018-11-11T20:50:09.229Z,11.30
2018-11-11T20:52:37.743Z,11.30
2018-11-11T20:55:06.996Z,11.20
2018-11-11T20:57:35.229Z,11.30
2018-11-11T21:00:03.862Z,11.20
2018-11-11T21:02:32.049Z,11.30
2018-11-11T21:05:00.235Z,11.30
2018-11-11T21:07:28.447Z,11.40
2018-11-11T21:09:56.613Z,11.30
2018-11-11T21:12:24.807Z,11.20
2018-11-11T21:14:52.993Z,11.30
2018-11-11T21:17:21.267Z,11.30
2018-11-11T21:19:49.378Z,11.20
2018-11-11T21:22:17.560Z,11.20
2018-11-11T21:24:45.763Z,11.10
2018-11-11T21:27:13.969Z,11.00
2018-11-11T21:29:42.141Z,11.00
2018-11-11T21:32:10.329Z,11.00
2018-11-11T21:34:38.522Z,11.00
2018-11-11T21:37:06.725Z,11.10
2018-11-11T21:39:34.917Z,11.10
2018-11-11T21:42:03.093Z,11.10
2018-11-11T21:44:31.284Z,11.20
2018-11-11T21:46:59.461Z,11.10
2018-11-11T21:49:27.657Z,11.10
2018-11-11T21:51:55.843Z,11.00
2018-11-11T21:54:24.038Z,11.00
2018-11-11T21:56:52.222Z,11.10
2018-11-11T21:59:20.410Z,11.00
2018-11-11T22:01:48.590Z,11.10
2018-11-11T22:04:16.771Z,11.10
2018-11-11T22:06:44.947Z,11.10
2018-11-11T22:09:13.205Z,11.10
2018-11-11T22:11:41.385Z,11.10
2018-11-11T22:14:09.564Z,11.00
2018-11-11T22:16:37.745Z,11.00
2018-11-11T22:19:05.933Z,11.00
2018-11-11T22:21:34.114Z,11.10
2018-11-11T22:24:02.307Z,11.00
2018-11-11T22:26:30.474Z,10.80
2018-11-11T22:28:58.665Z,10.70
2018-11-11T22:31:26.852Z,10.60
2018-11-11T22:33:55.051Z,10.60
2018-11-11T22:36:23.229Z,10.70
2018-11-11T22:38:51.419Z,10.70
2018-11-11T22:41:19.606Z,10.60
2018-11-11T22:43:47.793Z,10.60
2018-11-11T22:46:15.982Z,10.50
2018-11-11T22:48:44.176Z,10.50
2018-11-11T22:51:12.362Z,10.50
2018-11-11T22:53:40.562Z,10.50
2018-11-11T22:56:08.750Z,10.50
2018-11-11T22:58:36.961Z,10.50
2018-11-11T23:01:11.356Z,10.50
2018-11-11T23:03:39.565Z,10.50
2018-11-11T23:06:07.872Z,10.40
2018-11-11T23:08:36.054Z,10.30
2018-11-11T23:11:04.249Z,10.40
2018-11-11T23:13:32.425Z,10.40
2018-11-11T23:16:00.627Z,10.30
2018-11-11T23:18:28.777Z,10.30
2018-11-11T23:20:56.969Z,10.20
2018-11-11T23:23:25.153Z,10.20
2018-11-11T23:25:53.345Z,10.20
2018-11-11T23:28:21.596Z,10.20
2018-11-11T23:30:49.717Z,10.30
2018-11-11T23:33:17.914Z,10.30
2018-11-11T23:35:46.077Z,10.20
2018-11-11T23:38:14.260Z,10.10
2018-11-11T23:40:42.433Z,10.10
2018-11-11T23:43:10.635Z,10.10
2018-11-11T23:45:38.811Z,10.20
2018-11-11T23:48:07.001Z,10.10
2018-11-11T23:50:35.174Z,10.10
2018-11-11T23:53:03.353Z,10.20
2018-11-11T23:55:31.533Z,10.20
2018-11-11T23:57:59.721Z,10.20
